createdAt,value
2017-08-04T00:00:31.623Z,3.55
2017-08-04T00:02:59.197Z,3.85
2017-08-04T00:05:26.736Z,4.07
2017-08-04T00:07:55.193Z,3.50
2017-08-04T00:10:22.777Z,4.28
2017-08-04T00:12:53.965Z,3.40
2017-08-04T00:15:21.550Z,2.97
2017-08-04T00:17:49.897Z,3.72
2017-08-04T00:20:17.484Z,3.70
2017-08-04T00:22:45.421Z,3.90
2017-08-04T00:25:12.953Z,3.60
2017-08-04T00:27:40.489Z,3.58
2017-08-04T00:30:08.129Z,3.70
2017-08-04T00:32:36.472Z,3.70
2017-08-04T00:35:04.013Z,3.30
2017-08-04T00:37:31.700Z,3.40
2017-08-04T00:39:59.233Z,3.33
2017-08-04T00:42:26.778Z,3.20
2017-08-04T00:44:55.526Z,3.37
2017-08-04T00:47:23.068Z,3.53
2017-08-04T00:49:50.617Z,3.30
2017-08-04T00:52:18.593Z,3.85
2017-08-04T00:54:46.165Z,3.35
2017-08-04T00:57:13.701Z,3.30
2017-08-04T00:59:41.281Z,3.30
2017-08-04T01:02:08.822Z,3.72
2017-08-04T01:04:37.629Z,3.58
2017-08-04T01:07:05.725Z,3.37
2017-08-04T01:09:33.407Z,3.47
2017-08-04T01:12:00.941Z,3.28
2017-08-04T01:14:28.525Z,3.80
2017-08-04T01:16:56.113Z,3.75
2017-08-04T01:19:23.697Z,3.15
2017-08-04T01:21:51.237Z,3.50
2017-08-04T01:24:18.877Z,4.30
2017-08-04T01:26:46.421Z,3.30
2017-08-04T01:29:14.769Z,3.60
2017-08-04T01:31:42.307Z,3.70
2017-08-04T01:34:09.881Z,4.03
2017-08-04T01:36:37.701Z,4.93
2017-08-04T01:39:06.342Z,5.30
2017-08-04T01:41:33.877Z,5.47
2017-08-04T01:44:01.973Z,4.45
2017-08-04T01:46:29.505Z,4.60
2017-08-04T01:48:57.037Z,4.32
2017-08-04T01:51:24.622Z,4.57
2017-08-04T01:53:52.159Z,4.45
2017-08-04T01:56:19.800Z,4.82
2017-08-04T01:58:47.346Z,4.60
2017-08-04T02:01:14.933Z,4.60
2017-08-04T02:03:42.514Z,4.80
2017-08-04T02:06:10.092Z,4.12
2017-08-04T02:08:37.630Z,4.43
2017-08-04T02:11:05.173Z,4.05
2017-08-04T02:13:33.586Z,4.00
2017-08-04T02:16:01.162Z,3.80
2017-08-04T02:18:28.844Z,3.40
2017-08-04T02:20:56.376Z,3.72
2017-08-04T02:23:23.913Z,3.78
2017-08-04T02:25:51.487Z,3.62
2017-08-04T02:28:19.032Z,4.10
2017-08-04T02:30:46.760Z,4.22
2017-08-04T02:33:14.313Z,3.22
2017-08-04T02:35:41.852Z,3.50
2017-08-04T02:38:10.126Z,3.60
2017-08-04T02:40:37.675Z,3.70
2017-08-04T02:43:05.249Z,3.30
2017-08-04T02:45:32.781Z,3.42
2017-08-04T02:48:00.784Z,3.95
2017-08-04T02:50:28.317Z,3.85
2017-08-04T02:52:55.854Z,3.30
2017-08-04T02:55:24.193Z,3.30
2017-08-04T02:57:52.162Z,3.25
2017-08-04T03:00:19.704Z,3.50
2017-08-04T03:02:47.241Z,3.10
2017-08-04T03:05:15.662Z,3.65
2017-08-04T03:07:43.204Z,3.03
2017-08-04T03:10:10.741Z,3.20
2017-08-04T03:12:39.569Z,3.03
2017-08-04T03:15:07.141Z,2.85
2017-08-04T03:17:34.676Z,3.12
2017-08-04T03:20:02.257Z,3.20
2017-08-04T03:22:29.802Z,3.00
2017-08-04T03:24:57.525Z,3.05
2017-08-04T03:27:25.102Z,2.83
2017-08-04T03:29:52.690Z,3.10
2017-08-04T03:32:20.565Z,2.80
2017-08-04T03:34:48.102Z,2.97
2017-08-04T03:37:15.642Z,2.62
2017-08-04T03:39:43.540Z,2.92
2017-08-04T03:42:11.126Z,2.95
2017-08-04T03:44:38.673Z,2.50
2017-08-04T03:47:06.262Z,2.72
2017-08-04T03:49:34.572Z,2.95
2017-08-04T03:52:02.689Z,2.70
2017-08-04T03:54:30.261Z,2.60
2017-08-04T03:56:57.801Z,2.85
2017-08-04T03:59:25.385Z,2.55
2017-08-04T04:01:52.947Z,2.95
2017-08-04T04:04:20.532Z,2.92
2017-08-04T04:06:48.077Z,2.92
2017-08-04T04:09:16.936Z,3.10
2017-08-04T04:11:44.468Z,2.80
2017-08-04T04:14:12.006Z,2.65
2017-08-04T04:16:39.585Z,2.78
2017-08-04T04:19:07.161Z,2.70
2017-08-04T04:21:34.702Z,3.30
2017-08-04T04:24:02.361Z,3.20
2017-08-04T04:26:29.896Z,2.62
2017-08-04T04:28:58.201Z,2.90
2017-08-04T04:31:25.781Z,3.10
2017-08-04T04:33:53.336Z,3.00
2017-08-04T04:36:21.220Z,3.20
2017-08-04T04:38:48.830Z,3.00
2017-08-04T04:41:17.143Z,2.70
2017-08-04T04:43:45.050Z,3.20
2017-08-04T04:46:12.588Z,3.30
2017-08-04T04:48:40.549Z,3.40
2017-08-04T04:51:08.090Z,3.40
2017-08-04T04:53:35.675Z,3.08
2017-08-04T04:56:04.886Z,3.58
2017-08-04T04:58:32.425Z,2.90
2017-08-04T05:00:59.972Z,3.30
2017-08-04T05:03:30.112Z,2.72
2017-08-04T05:05:57.661Z,3.20
2017-08-04T05:08:25.236Z,2.80
2017-08-04T05:10:52.816Z,3.40
2017-08-04T05:13:20.361Z,3.30
2017-08-04T05:15:47.953Z,3.15
2017-08-04T05:18:15.493Z,2.90
2017-08-04T05:20:43.231Z,2.40
2017-08-04T05:23:10.817Z,2.75
2017-08-04T05:25:38.367Z,2.60
2017-08-04T05:28:05.950Z,2.97
2017-08-04T05:30:33.698Z,2.92
2017-08-04T05:33:01.385Z,2.78
2017-08-04T05:35:29.697Z,2.60
2017-08-04T05:37:57.939Z,2.72
2017-08-04T05:40:26.797Z,2.50
2017-08-04T05:42:54.366Z,2.72
2017-08-04T05:45:21.903Z,2.87
2017-08-04T05:47:54.398Z,2.65
2017-08-04T05:50:22.365Z,2.78
2017-08-04T05:52:49.907Z,2.55
2017-08-04T05:55:17.455Z,2.47
2017-08-04T05:57:45.174Z,2.95
2017-08-04T06:00:12.789Z,2.42
2017-08-04T06:02:40.358Z,2.53
2017-08-04T06:05:07.953Z,2.60
2017-08-04T06:07:35.589Z,2.62
2017-08-04T06:10:07.266Z,2.30
2017-08-04T06:12:34.805Z,3.37
2017-08-04T06:15:02.341Z,2.58
2017-08-04T06:17:30.069Z,2.55
2017-08-04T06:19:58.422Z,2.65
2017-08-04T06:22:25.958Z,2.40
2017-08-04T06:24:53.553Z,2.65
2017-08-04T06:27:21.098Z,2.42
2017-08-04T06:29:48.644Z,2.80
2017-08-04T06:32:16.530Z,2.67
2017-08-04T06:34:44.087Z,2.80
2017-08-04T06:37:11.722Z,2.50
2017-08-04T06:39:44.477Z,2.55
2017-08-04T06:42:12.329Z,2.28
2017-08-04T06:44:40.633Z,2.50
2017-08-04T06:47:08.169Z,2.15
2017-08-04T06:49:47.865Z,2.47
2017-08-04T06:52:27.346Z,2.75
2017-08-04T06:55:07.782Z,2.72
2017-08-04T06:57:35.324Z,2.12
2017-08-04T07:00:02.871Z,2.30
2017-08-04T07:02:30.509Z,2.28
2017-08-04T07:04:58.241Z,2.78
2017-08-04T07:07:25.821Z,2.30
2017-08-04T07:09:54.313Z,2.55
2017-08-04T07:12:21.902Z,2.60
2017-08-04T07:14:49.443Z,2.37
2017-08-04T07:17:16.987Z,2.55
2017-08-04T07:19:45.435Z,2.30
2017-08-04T07:22:12.995Z,2.60
2017-08-04T07:24:40.590Z,2.22
2017-08-04T07:27:08.893Z,2.05
2017-08-04T07:29:36.862Z,2.25
2017-08-04T07:32:04.436Z,2.37
2017-08-04T07:34:31.993Z,2.25
2017-08-04T07:36:59.726Z,1.80
2017-08-04T07:39:27.272Z,2.28
2017-08-04T07:42:00.766Z,1.87
2017-08-04T07:44:28.334Z,2.00
2017-08-04T07:46:56.643Z,1.67
2017-08-04T07:49:24.233Z,1.90
2017-08-04T07:51:52.017Z,2.08
2017-08-04T07:54:19.577Z,1.65
2017-08-04T07:56:47.165Z,1.70
2017-08-04T07:59:15.478Z,2.00
2017-08-04T08:01:43.069Z,2.00
2017-08-04T08:04:10.613Z,2.15
2017-08-04T08:06:39.195Z,1.80
2017-08-04T08:09:07.062Z,1.50
2017-08-04T08:11:34.619Z,1.98
2017-08-04T08:14:02.205Z,1.98
2017-08-04T08:16:29.749Z,1.83
2017-08-04T08:18:57.756Z,2.10
2017-08-04T08:21:26.074Z,2.20
2017-08-04T08:23:53.632Z,1.80
2017-08-04T08:26:21.316Z,1.80
2017-08-04T08:28:48.891Z,1.90
2017-08-04T08:31:16.442Z,1.90
2017-08-04T08:33:44.029Z,1.90
2017-08-04T08:36:11.610Z,2.00
2017-08-04T08:38:39.193Z,2.13
2017-08-04T08:41:06.743Z,1.70
2017-08-04T08:43:34.407Z,2.00
2017-08-04T08:46:01.993Z,1.57
2017-08-04T08:48:29.536Z,1.70
2017-08-04T08:50:57.453Z,1.87
2017-08-04T08:53:24.998Z,1.60
2017-08-04T08:55:52.538Z,1.60
2017-08-04T08:58:20.443Z,1.50
2017-08-04T09:00:47.979Z,1.70
2017-08-04T09:03:15.525Z,1.53
2017-08-04T09:05:43.639Z,1.70
2017-08-04T09:08:11.186Z,1.57
2017-08-04T09:10:39.006Z,1.77
2017-08-04T09:13:09.069Z,1.90
2017-08-04T09:15:36.617Z,1.73
2017-08-04T09:18:04.653Z,1.50
2017-08-04T09:20:32.202Z,1.70
2017-08-04T09:22:59.745Z,1.87
2017-08-04T09:25:27.398Z,1.63
2017-08-04T09:27:54.982Z,1.80
2017-08-04T09:30:22.528Z,1.60
2017-08-04T09:32:50.109Z,1.93
2017-08-04T09:35:17.649Z,1.53
2017-08-04T09:37:45.225Z,1.73
2017-08-04T09:40:12.769Z,1.73
2017-08-04T09:42:40.822Z,1.50
2017-08-04T09:45:08.397Z,1.60
2017-08-04T09:47:35.940Z,1.47
2017-08-04T09:50:03.527Z,1.60
2017-08-04T09:52:31.867Z,1.70
2017-08-04T09:54:59.965Z,1.70
2017-08-04T09:57:27.514Z,1.83
2017-08-04T09:59:55.053Z,1.50
2017-08-04T10:02:22.705Z,1.80
2017-08-04T10:04:50.426Z,1.70
2017-08-04T10:07:17.973Z,1.40
2017-08-04T10:09:50.749Z,1.70
2017-08-04T10:12:18.309Z,1.50
2017-08-04T10:14:46.393Z,1.40
2017-08-04T10:17:13.938Z,1.40
2017-08-04T10:19:41.485Z,1.90
2017-08-04T10:22:09.466Z,2.07
2017-08-04T10:24:37.029Z,1.60
2017-08-04T10:27:04.609Z,1.87
2017-08-04T10:29:32.154Z,2.10
2017-08-04T10:31:59.746Z,2.40
2017-08-04T10:34:28.052Z,1.80
2017-08-04T10:36:56.069Z,1.90
2017-08-04T10:39:23.614Z,2.20
2017-08-04T10:41:51.154Z,1.90
2017-08-04T10:44:19.458Z,2.13
2017-08-04T10:46:46.997Z,1.97
2017-08-04T10:49:14.546Z,2.10
2017-08-04T10:51:42.143Z,2.30
2017-08-04T10:54:09.675Z,2.50
2017-08-04T10:56:37.213Z,2.40
2017-08-04T10:59:05.206Z,2.13
2017-08-04T11:01:32.745Z,2.30
2017-08-04T11:04:00.297Z,2.10
2017-08-04T11:06:27.888Z,2.20
2017-08-04T11:08:55.741Z,2.20
2017-08-04T11:11:23.285Z,2.40
2017-08-04T11:13:50.840Z,2.70
2017-08-04T11:16:23.987Z,2.27
2017-08-04T11:18:51.530Z,2.27
2017-08-04T11:21:19.070Z,2.67
2017-08-04T11:23:46.662Z,2.20
2017-08-04T11:26:14.629Z,2.50
2017-08-04T11:28:42.172Z,2.30
2017-08-04T11:31:09.723Z,2.83
2017-08-04T11:33:37.487Z,2.80
2017-08-04T11:36:05.078Z,2.60
2017-08-04T11:38:33.013Z,2.50
2017-08-04T11:41:00.555Z,3.00
2017-08-04T11:43:28.119Z,2.83
2017-08-04T11:45:56.070Z,2.70
2017-08-04T11:48:23.762Z,2.90
2017-08-04T11:50:51.297Z,2.30
2017-08-04T11:53:19.726Z,2.67
2017-08-04T11:55:47.270Z,2.43
2017-08-04T11:58:14.857Z,2.50
2017-08-04T12:00:42.402Z,2.47
2017-08-04T12:03:10.800Z,2.93
2017-08-04T12:05:38.337Z,2.10
2017-08-04T12:08:05.875Z,1.90
2017-08-04T12:10:33.730Z,2.00
2017-08-04T12:13:01.302Z,2.10
2017-08-04T12:15:28.953Z,2.13
2017-08-04T12:17:56.509Z,2.00
2017-08-04T12:20:24.813Z,2.23
2017-08-04T12:22:52.495Z,2.20
2017-08-04T12:25:20.074Z,2.00
2017-08-04T12:27:47.809Z,2.23
2017-08-04T12:30:15.805Z,2.10
2017-08-04T12:32:43.337Z,1.90
2017-08-04T12:35:10.877Z,2.17
2017-08-04T12:37:38.462Z,1.80
2017-08-04T12:40:05.998Z,1.70
2017-08-04T12:42:33.854Z,1.93
2017-08-04T12:45:02.162Z,1.60
2017-08-04T12:47:29.702Z,1.73
2017-08-04T12:49:57.824Z,1.90
2017-08-04T12:52:25.374Z,1.93
2017-08-04T12:54:52.909Z,2.80
2017-08-04T12:57:20.506Z,3.00
2017-08-04T12:59:48.081Z,2.43
2017-08-04T13:02:15.624Z,2.60
2017-08-04T13:04:43.205Z,2.50
2017-08-04T13:07:10.745Z,2.60
2017-08-04T13:09:38.669Z,2.63
2017-08-04T13:12:06.201Z,2.43
2017-08-04T13:14:33.778Z,2.73
2017-08-04T13:17:02.130Z,2.50
2017-08-04T13:19:29.675Z,2.90
2017-08-04T13:21:57.289Z,2.20
2017-08-04T13:24:24.829Z,3.00
2017-08-04T13:26:52.374Z,2.97
2017-08-04T13:29:20.734Z,2.97
2017-08-04T13:31:48.274Z,2.70
2017-08-04T13:34:15.809Z,2.63
2017-08-04T13:36:43.389Z,2.60
2017-08-04T13:39:10.923Z,2.70
2017-08-04T13:41:38.521Z,2.43
2017-08-04T13:44:06.405Z,2.30
2017-08-04T13:46:33.933Z,2.20
2017-08-04T13:49:01.511Z,2.30
2017-08-04T13:51:29.172Z,1.87
2017-08-04T13:53:56.715Z,2.13
2017-08-04T13:56:24.253Z,2.20
2017-08-04T13:58:52.944Z,1.67
2017-08-04T14:01:21.243Z,2.17
2017-08-04T14:03:48.829Z,2.03
2017-08-04T14:06:21.820Z,2.10
2017-08-04T14:08:49.383Z,2.37
2017-08-04T14:11:17.269Z,2.30
2017-08-04T14:13:44.893Z,2.03
2017-08-04T14:16:13.324Z,2.40
2017-08-04T14:18:41.621Z,2.20
2017-08-04T14:21:09.203Z,2.03
2017-08-04T14:23:36.860Z,2.00
2017-08-04T14:26:04.459Z,1.93
2017-08-04T14:28:31.998Z,2.30
2017-08-04T14:30:59.649Z,2.10
2017-08-04T14:33:27.187Z,2.00
2017-08-04T14:35:54.829Z,2.00
2017-08-04T14:38:23.130Z,1.80
2017-08-04T14:40:50.861Z,2.10
2017-08-04T14:43:18.398Z,2.33
2017-08-04T14:45:45.974Z,2.10
2017-08-04T14:48:13.517Z,2.10
2017-08-04T14:50:41.116Z,2.27
2017-08-04T14:53:09.425Z,2.17
2017-08-04T14:55:36.966Z,2.30
2017-08-04T14:58:05.437Z,2.00
2017-08-04T15:00:33.742Z,2.43
2017-08-04T15:03:01.273Z,2.20
2017-08-04T15:05:29.200Z,2.10
2017-08-04T15:07:56.748Z,2.40
2017-08-04T15:10:24.889Z,2.40
2017-08-04T15:12:52.597Z,2.40
2017-08-04T15:15:20.173Z,2.60
2017-08-04T15:17:47.709Z,2.50
2017-08-04T15:20:15.286Z,2.57
2017-08-04T15:22:42.851Z,2.20
2017-08-04T15:25:10.701Z,2.10
2017-08-04T15:27:38.237Z,2.13
2017-08-04T15:30:05.780Z,2.30
2017-08-04T15:32:39.640Z,2.40
2017-08-04T15:35:07.214Z,2.23
2017-08-04T15:37:34.762Z,2.30
2017-08-04T15:40:02.357Z,2.40
2017-08-04T15:42:30.049Z,2.40
2017-08-04T15:44:57.601Z,2.20
2017-08-04T15:47:25.195Z,2.00
2017-08-04T15:49:52.743Z,1.63
2017-08-04T15:52:20.450Z,1.80
2017-08-04T15:54:48.057Z,1.50
2017-08-04T15:57:15.597Z,1.90
2017-08-04T15:59:43.150Z,1.90
2017-08-04T16:02:11.805Z,2.20
2017-08-04T16:04:39.368Z,2.10
2017-08-04T16:07:06.907Z,2.10
2017-08-04T16:09:35.059Z,2.07
2017-08-04T16:12:02.678Z,2.00
2017-08-04T16:14:30.217Z,2.10
2017-08-04T16:16:58.085Z,1.90
2017-08-04T16:19:25.629Z,1.97
2017-08-04T16:21:53.183Z,2.20
2017-08-04T16:24:20.766Z,1.77
2017-08-04T16:26:48.301Z,1.90
2017-08-04T16:29:16.225Z,2.07
2017-08-04T16:31:44.570Z,2.10
2017-08-04T16:34:12.115Z,1.70
2017-08-04T16:36:39.773Z,2.00
2017-08-04T16:39:07.353Z,2.20
2017-08-04T16:41:34.894Z,2.30
2017-08-04T16:44:03.110Z,1.63
2017-08-04T16:46:30.652Z,1.87
2017-08-04T16:48:58.189Z,1.97
2017-08-04T16:51:25.768Z,1.80
2017-08-04T16:53:53.313Z,2.07
2017-08-04T16:56:20.916Z,1.90
2017-08-04T16:58:49.221Z,1.13
2017-08-04T17:01:21.940Z,1.50
2017-08-04T17:03:49.553Z,2.23
2017-08-04T17:06:17.126Z,3.20
2017-08-04T17:08:44.730Z,1.80
2017-08-04T17:11:12.602Z,1.80
2017-08-04T17:13:40.198Z,1.53
2017-08-04T17:16:07.749Z,1.30
2017-08-04T17:18:36.241Z,1.50
2017-08-04T17:21:04.901Z,1.70
2017-08-04T17:23:32.449Z,1.50
2017-08-04T17:26:00.081Z,1.63
2017-08-04T17:28:27.616Z,1.50
2017-08-04T17:30:55.200Z,1.67
2017-08-04T17:33:23.169Z,1.60
2017-08-04T17:35:50.708Z,1.50
2017-08-04T17:38:18.259Z,1.60
2017-08-04T17:40:45.998Z,1.70
2017-08-04T17:43:13.537Z,1.30
2017-08-04T17:45:44.885Z,1.37
2017-08-04T17:48:12.450Z,1.50
2017-08-04T17:50:40.037Z,1.20
2017-08-04T17:53:07.574Z,1.17
2017-08-04T17:55:35.290Z,1.30
2017-08-04T17:58:02.830Z,1.60
2017-08-04T18:00:30.447Z,2.47
2017-08-04T18:03:10.013Z,2.50
2017-08-04T18:05:37.662Z,3.00
2017-08-04T18:08:05.245Z,2.17
2017-08-04T18:10:33.917Z,1.43
2017-08-04T18:13:01.458Z,1.80
2017-08-04T18:15:29.004Z,1.50
2017-08-04T18:17:56.997Z,1.53
2017-08-04T18:20:24.545Z,1.60
2017-08-04T18:22:52.080Z,2.73
2017-08-04T18:25:23.360Z,2.63
2017-08-04T18:27:51.242Z,2.73
2017-08-04T18:30:18.781Z,2.67
2017-08-04T18:32:46.313Z,4.60
2017-08-04T18:35:13.893Z,5.17
2017-08-04T18:37:41.433Z,4.13
2017-08-04T18:40:09.542Z,3.60
2017-08-04T18:42:37.083Z,2.47
2017-08-04T18:45:04.622Z,2.30
2017-08-04T18:47:32.235Z,2.40
2017-08-04T18:49:59.792Z,2.03
2017-08-04T18:52:27.389Z,2.37
2017-08-04T18:54:55.693Z,2.93
2017-08-04T18:57:23.236Z,2.47
2017-08-04T18:59:52.490Z,2.33
2017-08-04T19:02:20.046Z,2.50
2017-08-04T19:04:47.588Z,2.10
2017-08-04T19:07:15.317Z,2.40
2017-08-04T19:09:42.865Z,2.43
2017-08-04T19:12:10.795Z,2.43
2017-08-04T19:14:38.331Z,2.63
2017-08-04T19:17:06.482Z,2.60
2017-08-04T19:19:34.021Z,2.27
2017-08-04T19:22:02.325Z,2.60
2017-08-04T19:24:29.912Z,2.30
2017-08-04T19:26:57.459Z,2.30
2017-08-04T19:29:25.046Z,2.17
2017-08-04T19:31:52.659Z,2.07
2017-08-04T19:34:20.375Z,2.03
2017-08-04T19:36:47.923Z,2.17
2017-08-04T19:39:15.506Z,2.47
2017-08-04T19:41:43.049Z,2.60
2017-08-04T19:44:10.753Z,2.53
2017-08-04T19:46:39.645Z,2.30
2017-08-04T19:49:07.197Z,1.90
2017-08-04T19:51:35.615Z,2.30
2017-08-04T19:54:03.163Z,2.10
2017-08-04T19:56:31.022Z,2.40
2017-08-04T19:58:58.565Z,2.60
2017-08-04T20:01:26.110Z,2.40
2017-08-04T20:03:53.693Z,2.40
2017-08-04T20:06:22.472Z,2.70
2017-08-04T20:08:50.018Z,2.40
2017-08-04T20:11:17.618Z,2.67
2017-08-04T20:13:45.205Z,2.50
2017-08-04T20:16:12.750Z,2.60
2017-08-04T20:18:40.393Z,2.60
2017-08-04T20:21:07.937Z,2.40
2017-08-04T20:23:36.755Z,2.50
2017-08-04T20:26:04.294Z,2.93
2017-08-04T20:28:32.606Z,3.07
2017-08-04T20:31:01.425Z,3.30
2017-08-04T20:33:28.991Z,3.90
2017-08-04T20:35:56.538Z,3.70
2017-08-04T20:38:24.125Z,3.25
2017-08-04T20:40:52.451Z,3.63
2017-08-04T20:43:20.193Z,3.13
2017-08-04T20:45:47.756Z,4.40
2017-08-04T20:48:15.342Z,3.50
2017-08-04T20:50:42.933Z,3.58
2017-08-04T20:53:10.486Z,3.70
2017-08-04T20:55:38.312Z,4.20
2017-08-04T20:58:05.905Z,4.62
2017-08-04T21:00:33.466Z,5.15
2017-08-04T21:03:01.341Z,5.32
2017-08-04T21:05:28.881Z,5.32
2017-08-04T21:07:56.453Z,5.22
2017-08-04T21:10:24.350Z,4.50
2017-08-04T21:12:51.897Z,4.20
2017-08-04T21:15:19.445Z,3.42
2017-08-04T21:17:47.450Z,3.60
2017-08-04T21:20:15.758Z,3.55
2017-08-04T21:22:43.308Z,3.50
2017-08-04T21:25:11.242Z,3.20
2017-08-04T21:27:38.794Z,3.70
2017-08-04T21:30:06.338Z,3.12
2017-08-04T21:32:33.919Z,3.40
2017-08-04T21:35:01.507Z,3.45
2017-08-04T21:37:29.829Z,5.50
2017-08-04T21:39:57.673Z,3.80
2017-08-04T21:42:25.538Z,3.25
2017-08-04T21:44:53.089Z,3.30
2017-08-04T21:47:21.710Z,3.58
2017-08-04T21:49:49.244Z,3.62
2017-08-04T21:52:16.808Z,3.25
2017-08-04T21:54:44.393Z,5.10
2017-08-04T21:57:11.945Z,6.18
2017-08-04T21:59:39.535Z,4.65
2017-08-04T22:02:07.078Z,5.60
2017-08-04T22:04:34.953Z,6.60
2017-08-04T22:07:02.521Z,6.70
2017-08-04T22:09:35.118Z,6.37
2017-08-04T22:12:02.659Z,6.30
2017-08-04T22:14:30.253Z,6.10
2017-08-04T22:16:58.569Z,5.00
2017-08-04T22:19:26.215Z,5.10
2017-08-04T22:21:53.765Z,4.72
2017-08-04T22:24:27.427Z,4.15
2017-08-04T22:26:54.996Z,4.80
2017-08-04T22:29:22.543Z,4.72
2017-08-04T22:31:50.118Z,5.12
2017-08-04T22:34:22.509Z,5.00
2017-08-04T22:36:50.858Z,4.80
2017-08-04T22:39:18.798Z,4.93
2017-08-04T22:41:46.419Z,5.03
2017-08-04T22:44:15.074Z,5.28
2017-08-04T22:46:42.618Z,5.45
2017-08-04T22:49:10.157Z,5.35
2017-08-04T22:51:37.735Z,5.20
2017-08-04T22:54:05.279Z,4.25
2017-08-04T22:56:33.176Z,4.95
2017-08-04T22:59:00.715Z,4.70
2017-08-04T23:01:28.294Z,4.62
2017-08-04T23:03:55.849Z,4.87
2017-08-04T23:06:23.447Z,4.60
2017-08-04T23:08:50.994Z,4.47
2017-08-04T23:11:24.642Z,4.60
2017-08-04T23:13:52.181Z,4.90
2017-08-04T23:16:19.765Z,4.37
2017-08-04T23:18:47.321Z,4.75
2017-08-04T23:21:14.962Z,4.68
2017-08-04T23:23:43.005Z,4.37
2017-08-04T23:26:10.546Z,4.47
2017-08-04T23:28:38.855Z,4.05
2017-08-04T23:31:06.630Z,4.15
2017-08-04T23:33:34.168Z,4.37
2017-08-04T23:36:02.005Z,4.80
2017-08-04T23:38:29.541Z,5.07
2017-08-04T23:40:57.094Z,4.70
2017-08-04T23:43:25.518Z,3.90
2017-08-04T23:45:53.098Z,4.35
2017-08-04T23:48:20.637Z,4.43
2017-08-04T23:50:48.178Z,4.37
2017-08-04T23:53:16.385Z,3.95
2017-08-04T23:55:43.932Z,4.28
2017-08-04T23:58:11.478Z,3.80
